createdAt,value
2023-03-04T00:01:52.490Z,19.57
2023-03-04T00:04:20.900Z,14.00
2023-03-04T00:06:50.520Z,14.63
2023-03-04T00:09:18.995Z,15.03
2023-03-04T00:11:47.605Z,19.00
2023-03-04T00:14:16.059Z,21.27
2023-03-04T00:16:44.583Z,22.57
2023-03-04T00:19:13.115Z,23.27
2023-03-04T00:21:41.538Z,18.10
2023-03-04T00:24:11.345Z,12.93
2023-03-04T00:26:39.621Z,22.93
2023-03-04T00:29:08.164Z,15.90
2023-03-04T00:31:36.661Z,12.60
2023-03-04T00:34:05.425Z,20.10
2023-03-04T00:36:33.827Z,21.33
2023-03-04T00:39:02.457Z,20.00
2023-03-04T00:41:32.059Z,18.77
2023-03-04T00:44:00.443Z,16.27
2023-03-04T00:46:28.879Z,19.03
2023-03-04T00:48:57.288Z,18.23
2023-03-04T00:51:25.723Z,16.70
2023-03-04T00:53:54.120Z,19.80
2023-03-04T00:56:22.408Z,12.87
2023-03-04T00:58:52.085Z,12.60
2023-03-04T01:01:20.627Z,16.57
2023-03-04T01:03:49.146Z,18.20
2023-03-04T01:06:17.665Z,24.17
2023-03-04T01:08:46.118Z,18.30
2023-03-04T01:11:14.549Z,16.57
2023-03-04T01:13:42.960Z,16.93
2023-03-04T01:16:12.989Z,19.43
2023-03-04T01:18:41.905Z,19.90
2023-03-04T01:21:10.414Z,18.17
2023-03-04T01:23:38.794Z,18.63
2023-03-04T01:26:07.192Z,17.97
2023-03-04T01:28:36.432Z,24.73
2023-03-04T01:31:04.948Z,15.50
2023-03-04T01:33:34.803Z,20.20
2023-03-04T01:36:03.347Z,20.03
2023-03-04T01:38:31.730Z,16.57
2023-03-04T01:41:00.370Z,15.13
2023-03-04T01:43:30.471Z,11.80
2023-03-04T01:45:59.733Z,18.07
2023-03-04T01:48:31.361Z,12.90
2023-03-04T01:51:03.104Z,19.97
2023-03-04T01:53:32.463Z,19.33
2023-03-04T01:56:05.744Z,14.13
2023-03-04T01:58:35.021Z,14.40
2023-03-04T02:01:03.532Z,17.53
2023-03-04T02:03:32.058Z,15.23
2023-03-04T02:06:01.948Z,19.20
2023-03-04T02:08:30.472Z,15.43
2023-03-04T02:10:58.926Z,17.20
2023-03-04T02:13:27.427Z,5.53
2023-03-04T02:15:55.910Z,14.00
2023-03-04T02:18:25.629Z,15.83
2023-03-04T02:21:03.992Z,12.73
2023-03-04T02:23:38.921Z,16.60
2023-03-04T02:26:15.193Z,16.27
2023-03-04T02:28:44.385Z,17.17
2023-03-04T02:31:26.635Z,17.60
2023-03-04T02:33:57.176Z,16.80
2023-03-04T02:36:25.801Z,17.70
2023-03-04T02:38:55.741Z,13.03
2023-03-04T02:41:27.424Z,10.47
2023-03-04T02:43:57.104Z,18.77
2023-03-04T02:46:25.866Z,21.53
2023-03-04T02:48:55.090Z,14.73
2023-03-04T02:51:23.512Z,17.97
2023-03-04T02:53:51.932Z,13.97
2023-03-04T02:56:20.233Z,13.27
2023-03-04T02:58:49.873Z,12.87
2023-03-04T03:01:18.396Z,15.10
2023-03-04T03:03:46.838Z,14.53
2023-03-04T03:06:15.269Z,17.03
2023-03-04T03:08:43.653Z,13.23
2023-03-04T03:11:12.860Z,14.77
2023-03-04T03:13:41.328Z,12.10
2023-03-04T03:16:10.956Z,15.40
2023-03-04T03:18:40.563Z,12.47
2023-03-04T03:21:09.242Z,21.17
2023-03-04T03:23:37.715Z,12.37
2023-03-04T03:26:06.634Z,14.17
2023-03-04T03:28:35.184Z,16.50
2023-03-04T03:31:03.793Z,15.80
2023-03-04T03:33:33.387Z,22.83
2023-03-04T03:36:01.920Z,17.70
2023-03-04T03:38:30.469Z,15.47
2023-03-04T03:40:58.958Z,10.97
2023-03-04T03:43:27.420Z,15.50
2023-03-04T03:45:55.940Z,14.50
2023-03-04T03:48:24.449Z,12.33
2023-03-04T03:50:54.110Z,15.17
2023-03-04T03:53:22.512Z,14.00
2023-03-04T03:55:50.936Z,9.17
2023-03-04T03:58:19.905Z,12.47
2023-03-04T04:00:48.341Z,16.73
2023-03-04T04:03:17.781Z,13.20
2023-03-04T04:05:46.313Z,18.80
2023-03-04T04:08:17.094Z,19.57
2023-03-04T04:10:45.770Z,12.30
2023-03-04T04:13:14.321Z,9.30
2023-03-04T04:15:42.744Z,11.77
2023-03-04T04:18:11.562Z,15.23
2023-03-04T04:20:39.891Z,17.83
2023-03-04T04:23:08.294Z,13.07
2023-03-04T04:25:38.041Z,21.63
2023-03-04T04:28:06.501Z,15.73
2023-03-04T04:30:35.001Z,14.00
2023-03-04T04:33:04.853Z,9.90
2023-03-04T04:35:34.192Z,9.13
2023-03-04T04:38:03.075Z,12.60
2023-03-04T04:40:31.568Z,17.87
2023-03-04T04:43:01.230Z,15.87
2023-03-04T04:45:29.678Z,15.20
2023-03-04T04:47:58.239Z,11.33
2023-03-04T04:50:26.607Z,11.13
2023-03-04T04:52:55.119Z,19.40
2023-03-04T04:55:23.802Z,12.53
2023-03-04T04:57:52.237Z,12.33
2023-03-04T05:00:22.642Z,14.03
2023-03-04T05:02:51.209Z,11.57
2023-03-04T05:05:19.681Z,12.47
2023-03-04T05:07:48.324Z,11.97
2023-03-04T05:10:16.783Z,13.43
2023-03-04T05:12:45.759Z,13.53
2023-03-04T05:15:14.414Z,13.27
2023-03-04T05:17:44.538Z,18.90
2023-03-04T05:20:13.569Z,13.17
2023-03-04T05:22:42.020Z,11.43
2023-03-04T05:25:11.136Z,11.17
2023-03-04T05:27:39.656Z,13.33
2023-03-04T05:30:09.097Z,13.77
2023-03-04T05:32:37.726Z,19.53
2023-03-04T05:35:08.171Z,15.27
2023-03-04T05:37:36.598Z,18.40
2023-03-04T05:40:06.134Z,17.43
2023-03-04T05:42:34.655Z,17.33
2023-03-04T05:45:03.063Z,23.77
2023-03-04T05:47:31.598Z,23.07
2023-03-04T05:50:00.064Z,22.57
2023-03-04T05:52:29.667Z,18.00
2023-03-04T05:54:58.090Z,19.73
2023-03-04T05:57:26.924Z,17.17
2023-03-04T05:59:55.334Z,17.77
2023-03-04T06:02:23.915Z,16.87
2023-03-04T06:04:52.457Z,17.87
2023-03-04T06:07:20.819Z,15.53
2023-03-04T06:09:50.475Z,12.37
2023-03-04T06:12:18.904Z,13.27
2023-03-04T06:14:47.369Z,13.97
2023-03-04T06:17:15.898Z,18.53
2023-03-04T06:19:44.335Z,14.70
2023-03-04T06:22:12.851Z,12.57
2023-03-04T06:24:41.275Z,19.47
2023-03-04T06:27:10.919Z,9.20
2023-03-04T06:29:39.425Z,12.13
2023-03-04T06:32:07.912Z,11.47
2023-03-04T06:34:36.332Z,9.60
2023-03-04T06:37:04.887Z,13.63
2023-03-04T06:39:33.911Z,10.93
2023-03-04T06:42:02.460Z,14.83
2023-03-04T06:44:32.282Z,14.07
2023-03-04T06:47:00.758Z,12.03
2023-03-04T06:49:29.263Z,12.70
2023-03-04T06:51:57.688Z,9.73
2023-03-04T06:54:26.412Z,14.67
2023-03-04T06:56:54.939Z,9.27
2023-03-04T06:59:23.322Z,13.23
2023-03-04T07:01:53.213Z,17.97
2023-03-04T07:04:22.813Z,15.40
2023-03-04T07:06:51.446Z,9.57
2023-03-04T07:09:19.856Z,10.67
2023-03-04T07:11:48.272Z,10.10
2023-03-04T07:14:16.842Z,13.93
2023-03-04T07:16:45.317Z,12.10
2023-03-04T07:19:15.502Z,10.93
2023-03-04T07:21:43.903Z,14.50
2023-03-04T07:24:12.377Z,10.33
2023-03-04T07:26:41.219Z,13.00
2023-03-04T07:29:09.628Z,14.93
2023-03-04T07:31:38.196Z,10.27
2023-03-04T07:34:08.656Z,13.87
2023-03-04T07:36:39.065Z,16.40
2023-03-04T07:39:08.215Z,12.90
2023-03-04T07:41:37.357Z,15.47
2023-03-04T07:44:07.849Z,20.90
2023-03-04T07:46:36.424Z,12.93
2023-03-04T07:49:05.144Z,16.33
2023-03-04T07:51:34.969Z,15.67
2023-03-04T07:54:05.191Z,12.67
2023-03-04T07:56:34.755Z,12.23
2023-03-04T07:59:03.735Z,16.17
2023-03-04T08:01:34.483Z,16.97
2023-03-04T08:04:03.828Z,17.37
2023-03-04T08:06:32.467Z,17.47
2023-03-04T08:09:02.196Z,15.03
2023-03-04T08:11:32.707Z,14.67
2023-03-04T08:14:01.179Z,13.67
2023-03-04T08:16:30.141Z,19.93
2023-03-04T08:19:00.265Z,14.80
2023-03-04T08:21:29.895Z,19.17
2023-03-04T08:24:01.798Z,15.40
2023-03-04T08:26:34.347Z,9.90
2023-03-04T08:29:05.614Z,12.77
2023-03-04T08:31:34.492Z,14.80
2023-03-04T08:34:04.178Z,13.37
2023-03-04T08:36:32.623Z,12.67
2023-03-04T08:39:01.464Z,11.17
2023-03-04T08:41:30.018Z,14.77
2023-03-04T08:44:00.889Z,11.50
2023-03-04T08:46:29.404Z,10.37
2023-03-04T08:48:57.847Z,5.63
2023-03-04T08:51:26.390Z,14.23
2023-03-04T08:53:55.065Z,8.90
2023-03-04T08:56:23.431Z,9.00
2023-03-04T08:58:51.920Z,7.20
2023-03-04T09:01:21.609Z,13.10
2023-03-04T09:03:50.117Z,18.47
2023-03-04T09:06:19.797Z,13.53
2023-03-04T09:08:48.180Z,9.50
2023-03-04T09:11:16.718Z,8.77
2023-03-04T09:13:45.159Z,11.17
2023-03-04T09:16:15.193Z,13.90
2023-03-04T09:18:45.526Z,9.00
2023-03-04T09:21:13.923Z,6.73
2023-03-04T09:23:42.654Z,12.47
2023-03-04T09:26:20.449Z,15.87
2023-03-04T09:28:52.151Z,16.10
2023-03-04T09:31:21.003Z,12.93
2023-03-04T09:33:51.146Z,19.20
2023-03-04T09:36:19.734Z,18.93
2023-03-04T09:38:48.153Z,9.73
2023-03-04T09:41:20.253Z,10.57
2023-03-04T09:43:50.307Z,15.30
2023-03-04T09:46:28.821Z,13.13
2023-03-04T09:48:58.795Z,8.13
2023-03-04T09:51:42.961Z,17.17
2023-03-04T09:54:16.655Z,14.73
2023-03-04T09:56:45.168Z,7.63
2023-03-04T09:59:24.339Z,7.80
2023-03-04T10:01:55.140Z,12.93
2023-03-04T10:04:34.429Z,7.77
2023-03-04T10:07:03.971Z,7.03
2023-03-04T10:09:48.783Z,7.60
2023-03-04T10:12:19.988Z,10.97
2023-03-04T10:14:52.493Z,9.90
2023-03-04T10:17:25.020Z,11.93
2023-03-04T10:19:58.759Z,12.60
2023-03-04T10:22:33.977Z,7.90
2023-03-04T10:25:17.633Z,7.10
2023-03-04T10:27:51.629Z,14.47
2023-03-04T10:30:31.480Z,10.50
2023-03-04T10:33:00.106Z,18.77
2023-03-04T10:35:37.490Z,13.60
2023-03-04T10:38:07.876Z,8.30
2023-03-04T10:40:40.818Z,16.47
2023-03-04T10:43:16.538Z,11.33
2023-03-04T10:45:45.585Z,10.90
2023-03-04T10:48:22.386Z,7.70
2023-03-04T10:50:52.147Z,10.53
2023-03-04T10:53:29.940Z,10.50
2023-03-04T10:55:58.482Z,6.83
2023-03-04T10:58:27.088Z,6.10
2023-03-04T11:01:04.816Z,8.10
2023-03-04T11:03:36.483Z,8.03
2023-03-04T11:06:22.225Z,7.57
2023-03-04T11:08:58.290Z,6.10
2023-03-04T11:11:34.837Z,7.93
2023-03-04T11:14:17.870Z,6.07
2023-03-04T11:16:56.158Z,4.97
2023-03-04T11:19:29.817Z,4.90
2023-03-04T11:22:01.287Z,5.03
2023-03-04T11:24:30.944Z,3.57
2023-03-04T11:27:05.905Z,3.03
2023-03-04T11:29:39.369Z,4.93
2023-03-04T11:32:13.011Z,4.27
2023-03-04T11:34:47.779Z,5.40
2023-03-04T11:37:24.448Z,5.53
2023-03-04T11:39:57.722Z,2.87
2023-03-04T11:42:34.653Z,4.03
2023-03-04T11:45:03.175Z,4.50
2023-03-04T11:47:56.865Z,3.27
2023-03-04T11:50:31.995Z,1.70
2023-03-04T11:53:32.940Z,6.30
2023-03-04T11:56:22.154Z,2.83
2023-03-04T11:59:21.794Z,3.37
2023-03-04T12:02:00.745Z,4.20
2023-03-04T12:05:04.031Z,4.23
2023-03-04T12:07:46.305Z,4.27
2023-03-04T12:10:24.629Z,1.07
2023-03-04T12:13:13.602Z,1.33
2023-03-04T12:15:49.032Z,3.80
2023-03-04T12:18:34.872Z,3.43
2023-03-04T12:21:28.229Z,2.93
2023-03-04T12:24:37.363Z,3.33
2023-03-04T12:27:22.116Z,7.80
2023-03-04T12:29:59.765Z,3.43
2023-03-04T12:32:37.403Z,3.07
2023-03-04T12:35:29.021Z,2.20
2023-03-04T12:38:25.896Z,5.10
2023-03-04T12:41:04.308Z,2.33
2023-03-04T12:43:43.187Z,3.77
2023-03-04T12:46:26.848Z,2.87
2023-03-04T12:49:24.286Z,3.00
2023-03-04T12:51:59.701Z,3.53
2023-03-04T12:54:33.040Z,3.80
2023-03-04T12:57:05.142Z,3.83
2023-03-04T12:59:39.006Z,4.50
2023-03-04T13:02:32.623Z,2.90
2023-03-04T13:05:08.660Z,5.47
2023-03-04T13:07:45.218Z,5.90
2023-03-04T13:10:15.811Z,4.07
2023-03-04T13:12:52.012Z,5.70
2023-03-04T13:15:36.812Z,5.13
2023-03-04T13:18:33.386Z,4.37
2023-03-04T13:21:19.027Z,5.07
2023-03-04T13:23:47.426Z,2.50
2023-03-04T13:26:34.255Z,6.23
2023-03-04T13:29:34.222Z,5.23
2023-03-04T13:32:06.081Z,6.10
2023-03-04T13:34:47.050Z,5.50
2023-03-04T13:37:33.934Z,8.47
2023-03-04T13:40:36.805Z,5.53
2023-03-04T13:43:26.996Z,6.20
2023-03-04T13:45:55.629Z,5.93
2023-03-04T13:48:37.415Z,7.07
2023-03-04T13:51:28.450Z,3.73
2023-03-04T13:54:08.033Z,7.20
2023-03-04T13:56:37.651Z,4.80
2023-03-04T13:59:16.411Z,5.10
2023-03-04T14:01:57.005Z,3.50
2023-03-04T14:04:31.075Z,6.70
2023-03-04T14:07:00.787Z,5.30
2023-03-04T14:09:30.522Z,3.80
2023-03-04T14:12:00.618Z,5.67
2023-03-04T14:14:30.960Z,8.20
2023-03-04T14:17:02.780Z,7.40
2023-03-04T14:19:36.062Z,7.10
2023-03-04T14:22:04.742Z,5.83
2023-03-04T14:24:33.226Z,4.07
2023-03-04T14:27:14.088Z,4.17
2023-03-04T14:29:42.619Z,5.80
2023-03-04T14:32:13.499Z,4.07
2023-03-04T14:34:43.300Z,7.83
2023-03-04T14:37:22.536Z,2.40
2023-03-04T14:39:55.550Z,3.00
2023-03-04T14:42:26.444Z,4.33
2023-03-04T14:44:57.401Z,7.77
2023-03-04T14:47:32.364Z,4.53
2023-03-04T14:50:02.073Z,5.80
2023-03-04T14:52:35.974Z,2.20
2023-03-04T14:55:25.691Z,5.00
2023-03-04T14:57:59.181Z,2.23
2023-03-04T15:00:31.246Z,3.00
2023-03-04T15:03:01.927Z,3.83
2023-03-04T15:05:33.635Z,3.77
2023-03-04T15:08:04.160Z,1.43
2023-03-04T15:10:34.827Z,3.57
2023-03-04T15:13:05.957Z,3.70
2023-03-04T15:15:43.512Z,3.47
2023-03-04T15:18:23.423Z,3.33
2023-03-04T15:20:58.365Z,9.13
2023-03-04T15:23:27.095Z,4.47
2023-03-04T15:25:57.700Z,4.50
2023-03-04T15:28:27.106Z,4.50
2023-03-04T15:30:55.662Z,4.23
2023-03-04T15:33:24.652Z,1.57
2023-03-04T15:35:59.755Z,4.20
2023-03-04T15:38:29.023Z,2.93
2023-03-04T15:40:58.416Z,5.30
2023-03-04T15:43:27.218Z,6.33
2023-03-04T15:45:55.612Z,4.67
2023-03-04T15:48:24.005Z,27.13
2023-03-04T15:50:58.486Z,6.47
2023-03-04T15:53:33.960Z,6.33
2023-03-04T15:56:03.287Z,6.80
2023-03-04T15:58:34.976Z,5.30
2023-03-04T16:01:03.768Z,13.03
2023-03-04T16:03:32.253Z,7.53
2023-03-04T16:06:02.073Z,19.63
2023-03-04T16:08:30.497Z,5.27
2023-03-04T16:10:58.942Z,9.37
2023-03-04T16:13:27.357Z,5.30
2023-03-04T16:15:56.087Z,10.17
2023-03-04T16:18:24.894Z,12.10
2023-03-04T16:20:53.606Z,12.10
2023-03-04T16:23:25.500Z,9.73
2023-03-04T16:25:56.138Z,11.97
2023-03-04T16:28:24.917Z,17.97
2023-03-04T16:30:53.529Z,13.20
2023-03-04T16:33:21.899Z,3.93
2023-03-04T16:35:51.796Z,9.70
2023-03-04T16:38:28.383Z,12.93
2023-03-04T16:40:58.750Z,10.07
2023-03-04T16:43:27.252Z,12.13
2023-03-04T16:45:55.819Z,8.40
2023-03-04T16:48:24.299Z,9.70
2023-03-04T16:50:52.698Z,9.87
2023-03-04T16:53:30.033Z,7.53
2023-03-04T16:56:01.512Z,8.47
2023-03-04T16:58:29.971Z,9.30
2023-03-04T17:00:58.509Z,5.07
2023-03-04T17:03:27.008Z,10.10
2023-03-04T17:05:55.476Z,11.00
2023-03-04T17:08:25.304Z,7.30
2023-03-04T17:10:54.073Z,9.23
2023-03-04T17:13:22.476Z,7.60
2023-03-04T17:15:51.051Z,7.93
2023-03-04T17:18:20.884Z,14.40
2023-03-04T17:20:49.427Z,7.77
2023-03-04T17:23:17.929Z,9.13
2023-03-04T17:25:47.571Z,8.20
2023-03-04T17:28:15.960Z,6.97
2023-03-04T17:30:44.429Z,8.20
2023-03-04T17:33:12.868Z,11.77
2023-03-04T17:35:41.433Z,13.13
2023-03-04T17:38:09.878Z,6.70
2023-03-04T17:40:38.320Z,5.00
2023-03-04T17:43:11.563Z,4.60
2023-03-04T17:45:41.023Z,11.77
2023-03-04T17:48:14.864Z,5.37
2023-03-04T17:50:50.525Z,7.83
2023-03-04T17:53:19.826Z,7.53
2023-03-04T17:55:51.367Z,7.30
2023-03-04T17:58:21.816Z,8.47
2023-03-04T18:00:51.095Z,6.53
2023-03-04T18:03:19.870Z,7.43
2023-03-04T18:05:48.170Z,5.90
2023-03-04T18:08:16.704Z,5.63
2023-03-04T18:10:45.132Z,5.90
2023-03-04T18:13:13.589Z,9.27
2023-03-04T18:15:44.380Z,9.77
2023-03-04T18:18:12.852Z,10.20
2023-03-04T18:20:41.517Z,8.00
2023-03-04T18:23:10.184Z,10.30
2023-03-04T18:25:38.664Z,11.03
2023-03-04T18:28:07.385Z,11.03
2023-03-04T18:30:35.883Z,8.53
2023-03-04T18:33:05.732Z,6.87
2023-03-04T18:35:34.353Z,8.27
2023-03-04T18:38:03.985Z,9.80
2023-03-04T18:40:32.652Z,17.87
2023-03-04T18:43:01.146Z,4.40
2023-03-04T18:45:29.746Z,11.90
2023-03-04T18:47:58.912Z,9.97
2023-03-04T18:50:28.669Z,10.10
2023-03-04T18:52:57.092Z,6.23
2023-03-04T18:55:26.751Z,8.00
2023-03-04T18:57:57.987Z,6.17
2023-03-04T19:00:26.849Z,9.30
2023-03-04T19:03:00.828Z,10.47
2023-03-04T19:05:33.088Z,10.97
2023-03-04T19:08:01.631Z,9.80
2023-03-04T19:10:30.445Z,12.63
2023-03-04T19:12:59.617Z,8.77
2023-03-04T19:15:28.235Z,7.93
2023-03-04T19:17:57.081Z,14.67
2023-03-04T19:20:25.452Z,9.53
2023-03-04T19:22:55.036Z,8.40
2023-03-04T19:25:23.410Z,8.97
2023-03-04T19:27:55.462Z,5.47
2023-03-04T19:30:23.964Z,7.50
2023-03-04T19:32:52.350Z,5.30
2023-03-04T19:35:20.819Z,4.73
2023-03-04T19:37:49.359Z,7.60
2023-03-04T19:40:19.289Z,5.93
2023-03-04T19:42:47.907Z,12.13
2023-03-04T19:45:16.404Z,6.03
2023-03-04T19:47:44.876Z,9.23
2023-03-04T19:50:14.144Z,8.17
2023-03-04T19:52:43.274Z,8.13
2023-03-04T19:55:13.657Z,8.87
2023-03-04T19:57:43.864Z,9.60
2023-03-04T20:00:13.758Z,8.17
2023-03-04T20:02:43.125Z,6.63
2023-03-04T20:05:12.437Z,6.37
2023-03-04T20:07:41.080Z,6.77
2023-03-04T20:10:10.904Z,8.13
2023-03-04T20:12:39.291Z,5.27
2023-03-04T20:15:10.489Z,10.63
2023-03-04T20:17:39.039Z,4.13
2023-03-04T20:20:10.697Z,3.97
2023-03-04T20:22:39.213Z,6.00
2023-03-04T20:25:07.976Z,5.07
2023-03-04T20:27:36.517Z,11.00
2023-03-04T20:30:05.243Z,7.63
2023-03-04T20:32:34.926Z,7.37
2023-03-04T20:35:03.515Z,11.10
2023-03-04T20:37:32.673Z,13.50
2023-03-04T20:40:01.189Z,8.80
2023-03-04T20:42:29.808Z,16.27
2023-03-04T20:44:58.658Z,7.07
2023-03-04T20:47:27.085Z,9.20
2023-03-04T20:49:56.730Z,10.80
2023-03-04T20:52:25.395Z,10.37
2023-03-04T20:54:54.021Z,11.63
2023-03-04T20:57:22.540Z,10.40
2023-03-04T20:59:51.045Z,15.23
2023-03-04T21:02:20.705Z,12.27
2023-03-04T21:04:49.171Z,8.33
2023-03-04T21:07:19.055Z,7.67
2023-03-04T21:09:47.524Z,7.83
2023-03-04T21:12:16.004Z,6.20
2023-03-04T21:14:44.949Z,6.37
2023-03-04T21:17:13.595Z,8.97
2023-03-04T21:19:44.378Z,11.77
2023-03-04T21:22:15.789Z,8.77
2023-03-04T21:24:46.433Z,11.43
2023-03-04T21:27:16.671Z,6.37
2023-03-04T21:29:45.858Z,6.70
2023-03-04T21:32:24.336Z,8.47
2023-03-04T21:34:53.874Z,7.77
2023-03-04T21:37:23.768Z,7.40
2023-03-04T21:39:54.257Z,10.70
2023-03-04T21:42:23.046Z,9.40
2023-03-04T21:44:52.147Z,14.27
2023-03-04T21:47:21.036Z,14.17
2023-03-04T21:49:49.887Z,9.57
2023-03-04T21:52:19.429Z,5.73
2023-03-04T21:54:48.096Z,8.23
2023-03-04T21:57:18.144Z,10.50
2023-03-04T21:59:47.644Z,7.87
2023-03-04T22:02:17.689Z,11.43
2023-03-04T22:04:46.311Z,11.80
2023-03-04T22:07:15.142Z,10.23
2023-03-04T22:09:43.874Z,8.97
2023-03-04T22:12:12.877Z,8.07
2023-03-04T22:14:42.517Z,5.63
2023-03-04T22:17:11.033Z,10.30
2023-03-04T22:19:39.672Z,13.90
2023-03-04T22:22:08.136Z,11.03
2023-03-04T22:24:36.832Z,11.17
2023-03-04T22:27:05.362Z,10.67
2023-03-04T22:29:33.826Z,9.80
2023-03-04T22:32:03.612Z,8.47
2023-03-04T22:34:32.145Z,10.27
2023-03-04T22:37:01.002Z,7.60
2023-03-04T22:39:29.859Z,9.90
2023-03-04T22:41:59.288Z,10.57
2023-03-04T22:44:27.888Z,8.33
2023-03-04T22:46:56.278Z,7.47
2023-03-04T22:49:26.022Z,5.77
2023-03-04T22:51:54.456Z,6.50
2023-03-04T22:54:22.886Z,12.27
2023-03-04T22:56:51.395Z,18.90
2023-03-04T22:59:19.818Z,7.53
2023-03-04T23:01:48.376Z,4.83
2023-03-04T23:04:16.811Z,13.30
2023-03-04T23:06:46.497Z,8.93
2023-03-04T23:09:15.009Z,10.33
2023-03-04T23:11:43.571Z,9.20
2023-03-04T23:14:12.241Z,6.07
2023-03-04T23:16:44.284Z,8.17
2023-03-04T23:19:17.813Z,6.67
2023-03-04T23:21:47.472Z,10.33
2023-03-04T23:24:16.552Z,9.13
2023-03-04T23:26:45.308Z,7.70
2023-03-04T23:29:18.151Z,8.97
2023-03-04T23:31:46.570Z,9.67
2023-03-04T23:34:15.121Z,9.60
2023-03-04T23:36:43.827Z,8.13
2023-03-04T23:39:14.277Z,5.47
2023-03-04T23:41:42.879Z,5.90
2023-03-04T23:44:12.464Z,6.33
2023-03-04T23:46:41.066Z,6.97
2023-03-04T23:49:10.058Z,12.03
2023-03-04T23:51:40.807Z,10.70
2023-03-04T23:54:09.448Z,9.77
2023-03-04T23:56:39.066Z,13.67
2023-03-04T23:59:08.087Z,10.27
